createdAt,value
2017-08-04T00:00:09.472Z,0
2017-08-04T00:01:09.441Z,0
2017-08-04T00:02:09.472Z,0
2017-08-04T00:03:09.522Z,0
2017-08-04T00:04:09.442Z,0
2017-08-04T00:05:09.540Z,0
2017-08-04T00:06:09.495Z,0
2017-08-04T00:07:09.438Z,0
2017-08-04T00:08:09.464Z,0
2017-08-04T00:09:09.469Z,0
2017-08-04T00:10:09.502Z,0
2017-08-04T00:11:09.469Z,0
2017-08-04T00:12:09.466Z,0
2017-08-04T00:13:09.522Z,0
2017-08-04T00:14:09.467Z,0
2017-08-04T00:15:09.499Z,0
2017-08-04T00:16:09.640Z,0
2017-08-04T00:17:09.500Z,0
2017-08-04T00:18:09.513Z,0
2017-08-04T00:19:09.447Z,0
2017-08-04T00:20:09.474Z,0
2017-08-04T00:21:09.449Z,0
2017-08-04T00:22:09.455Z,0
2017-08-04T00:23:09.514Z,0
2017-08-04T00:24:09.489Z,0
2017-08-04T00:25:09.548Z,0
2017-08-04T00:26:09.505Z,0
2017-08-04T00:27:09.514Z,0
2017-08-04T00:28:09.527Z,0
2017-08-04T00:29:09.461Z,0
2017-08-04T00:30:09.556Z,0
2017-08-04T00:31:09.531Z,0
2017-08-04T00:32:09.455Z,0
2017-08-04T00:33:09.461Z,0
2017-08-04T00:34:09.493Z,0
2017-08-04T00:35:09.459Z,0
2017-08-04T00:36:09.551Z,0
2017-08-04T00:37:09.523Z,0
2017-08-04T00:38:09.463Z,0
2017-08-04T00:39:09.537Z,0
2017-08-04T00:40:09.485Z,0
2017-08-04T00:41:09.468Z,0
2017-08-04T00:42:09.461Z,0
2017-08-04T00:43:09.554Z,0
2017-08-04T00:44:09.495Z,0
2017-08-04T00:45:09.561Z,0
2017-08-04T00:46:09.499Z,0
2017-08-04T00:47:09.523Z,0
2017-08-04T00:48:09.557Z,0
2017-08-04T00:49:09.520Z,0
2017-08-04T00:50:09.468Z,0
2017-08-04T00:51:09.561Z,0
2017-08-04T00:52:09.468Z,0
2017-08-04T00:53:09.473Z,0
2017-08-04T00:54:09.469Z,0
2017-08-04T00:55:09.501Z,0
2017-08-04T00:56:09.468Z,0
2017-08-04T00:57:09.531Z,0
2017-08-04T00:58:09.568Z,0
2017-08-04T00:59:09.478Z,0
2017-08-04T01:00:09.494Z,0
2017-08-04T01:01:09.498Z,0
2017-08-04T01:02:09.471Z,0
2017-08-04T01:03:09.510Z,0
2017-08-04T01:04:09.524Z,0
2017-08-04T01:05:09.508Z,0
2017-08-04T01:06:09.497Z,0
2017-08-04T01:07:09.495Z,0
2017-08-04T01:08:09.501Z,0
2017-08-04T01:09:09.499Z,0
2017-08-04T01:10:09.534Z,0
2017-08-04T01:11:09.468Z,0
2017-08-04T01:12:09.530Z,0
2017-08-04T01:13:09.499Z,0
2017-08-04T01:14:09.501Z,0
2017-08-04T01:15:09.542Z,0
2017-08-04T01:16:09.496Z,0
2017-08-04T01:17:09.503Z,0
2017-08-04T01:18:09.476Z,0
2017-08-04T01:19:09.546Z,0
2017-08-04T01:20:09.457Z,0
2017-08-04T01:21:09.432Z,0
2017-08-04T01:22:09.467Z,0
2017-08-04T01:23:09.508Z,0
2017-08-04T01:24:09.456Z,0
2017-08-04T01:25:09.503Z,0
2017-08-04T01:26:09.560Z,0
2017-08-04T01:27:09.489Z,0
2017-08-04T01:28:09.545Z,0
2017-08-04T01:29:09.543Z,0
2017-08-04T01:30:09.544Z,0
2017-08-04T01:31:09.482Z,0
2017-08-04T01:32:09.510Z,0
2017-08-04T01:33:09.546Z,0
2017-08-04T01:34:09.484Z,0
2017-08-04T01:35:09.545Z,0
2017-08-04T01:36:09.500Z,0
2017-08-04T01:37:09.542Z,0
2017-08-04T01:38:09.432Z,0
2017-08-04T01:39:09.494Z,0
2017-08-04T01:40:09.479Z,0
2017-08-04T01:41:09.517Z,0
2017-08-04T01:42:09.488Z,0
2017-08-04T01:43:09.428Z,0
2017-08-04T01:44:09.432Z,0
2017-08-04T01:45:09.515Z,0
2017-08-04T01:46:09.652Z,0
2017-08-04T01:47:09.475Z,0
2017-08-04T01:48:09.521Z,0
2017-08-04T01:49:09.518Z,0
2017-08-04T01:50:09.478Z,0
2017-08-04T01:51:09.510Z,0
2017-08-04T01:52:09.499Z,0
2017-08-04T01:53:09.486Z,0
2017-08-04T01:54:09.497Z,0
2017-08-04T01:55:09.472Z,0
2017-08-04T01:56:09.523Z,0
2017-08-04T01:57:09.555Z,0
2017-08-04T01:58:09.562Z,0
2017-08-04T01:59:09.507Z,0
2017-08-04T02:00:09.528Z,0
2017-08-04T02:01:09.527Z,0
2017-08-04T02:02:09.503Z,0
2017-08-04T02:03:09.531Z,0
2017-08-04T02:04:09.566Z,0
2017-08-04T02:05:09.601Z,0
2017-08-04T02:06:09.515Z,0
2017-08-04T02:07:09.509Z,0
2017-08-04T02:08:09.502Z,0
2017-08-04T02:09:09.563Z,0
2017-08-04T02:10:09.450Z,0
2017-08-04T02:11:09.525Z,0
2017-08-04T02:12:09.525Z,0
2017-08-04T02:13:09.457Z,0
2017-08-04T02:14:09.524Z,0
2017-08-04T02:15:09.574Z,0
2017-08-04T02:16:09.493Z,0
2017-08-04T02:17:09.535Z,0
2017-08-04T02:18:09.515Z,0
2017-08-04T02:19:09.585Z,0
2017-08-04T02:20:09.535Z,0
2017-08-04T02:21:09.549Z,0
2017-08-04T02:22:09.523Z,0
2017-08-04T02:23:09.659Z,0
2017-08-04T02:24:09.536Z,0
2017-08-04T02:25:09.536Z,0
2017-08-04T02:26:09.517Z,0
2017-08-04T02:27:09.547Z,0
2017-08-04T02:29:09.541Z,0
2017-08-04T02:30:09.521Z,0
2017-08-04T02:31:09.583Z,0
2017-08-04T02:32:09.518Z,0
2017-08-04T02:33:09.578Z,0
2017-08-04T02:34:09.548Z,0
2017-08-04T02:35:09.588Z,0
2017-08-04T02:36:09.549Z,0
2017-08-04T02:37:09.556Z,0
2017-08-04T02:38:09.524Z,0
2017-08-04T02:39:09.532Z,0
2017-08-04T02:40:09.509Z,0
2017-08-04T02:41:09.740Z,0
2017-08-04T02:42:09.617Z,0
2017-08-04T02:43:09.595Z,0
2017-08-04T02:44:09.546Z,0
2017-08-04T02:45:09.564Z,0
2017-08-04T02:46:09.590Z,0
2017-08-04T02:47:09.573Z,0
2017-08-04T02:48:09.540Z,0
2017-08-04T02:49:09.606Z,0
2017-08-04T02:50:09.627Z,0
2017-08-04T02:51:09.633Z,0
2017-08-04T02:52:09.571Z,0
2017-08-04T02:53:09.572Z,0
2017-08-04T02:54:09.605Z,0
2017-08-04T02:55:09.607Z,0
2017-08-04T02:56:09.479Z,0
2017-08-04T02:57:09.477Z,0
2017-08-04T02:58:09.482Z,0
2017-08-04T02:59:09.608Z,0
2017-08-04T03:00:09.557Z,0
2017-08-04T03:01:09.605Z,0
2017-08-04T03:02:09.527Z,0
2017-08-04T03:03:09.543Z,0
2017-08-04T03:04:09.544Z,0
2017-08-04T03:05:09.528Z,0
2017-08-04T03:06:09.537Z,0
2017-08-04T03:07:09.486Z,0
2017-08-04T03:08:09.484Z,0
2017-08-04T03:09:09.487Z,0
2017-08-04T03:10:09.541Z,4
2017-08-04T03:11:09.486Z,4
2017-08-04T03:12:09.544Z,4
2017-08-04T03:13:09.554Z,4
2017-08-04T03:14:09.559Z,0
2017-08-04T03:15:09.546Z,4
2017-08-04T03:16:09.545Z,4
2017-08-04T03:17:09.578Z,4
2017-08-04T03:18:09.529Z,4
2017-08-04T03:19:09.525Z,4
2017-08-04T03:20:09.522Z,8
2017-08-04T03:21:09.553Z,8
2017-08-04T03:22:09.554Z,12
2017-08-04T03:23:09.556Z,12
2017-08-04T03:24:09.582Z,16
2017-08-04T03:25:09.557Z,16
2017-08-04T03:26:09.583Z,16
2017-08-04T03:27:09.660Z,20
2017-08-04T03:28:09.615Z,20
2017-08-04T03:29:09.559Z,28
2017-08-04T03:30:09.561Z,32
2017-08-04T03:31:09.594Z,40
2017-08-04T03:32:09.659Z,44
2017-08-04T03:33:09.652Z,52
2017-08-04T03:34:09.633Z,64
2017-08-04T03:35:09.656Z,72
2017-08-04T03:36:09.647Z,80
2017-08-04T03:37:09.658Z,92
2017-08-04T03:38:09.652Z,104
2017-08-04T03:39:09.635Z,120
2017-08-04T03:40:09.599Z,124
2017-08-04T03:41:09.658Z,132
2017-08-04T03:42:09.637Z,144
2017-08-04T03:43:09.634Z,152
2017-08-04T03:44:09.605Z,164
2017-08-04T03:45:09.623Z,184
2017-08-04T03:46:09.569Z,208
2017-08-04T03:47:09.588Z,228
2017-08-04T03:48:09.634Z,248
2017-08-04T03:49:09.634Z,264
2017-08-04T03:50:09.593Z,272
2017-08-04T03:51:09.632Z,284
2017-08-04T03:52:09.602Z,300
2017-08-04T03:53:09.630Z,320
2017-08-04T03:54:09.593Z,352
2017-08-04T03:55:09.597Z,416
2017-08-04T03:56:09.582Z,504
2017-08-04T03:57:09.575Z,592
2017-08-04T03:58:09.580Z,656
2017-08-04T03:59:09.611Z,700
2017-08-04T04:00:09.649Z,796
2017-08-04T04:01:09.615Z,972
2017-08-04T04:02:09.585Z,1180
2017-08-04T04:03:09.641Z,1396
2017-08-04T04:04:09.612Z,1604
2017-08-04T04:05:09.579Z,1792
2017-08-04T04:06:09.579Z,1960
2017-08-04T04:07:09.579Z,2060
2017-08-04T04:08:09.575Z,2108
2017-08-04T04:09:09.605Z,2112
2017-08-04T04:10:09.581Z,1972
2017-08-04T04:11:09.581Z,1760
2017-08-04T04:12:09.609Z,1596
2017-08-04T04:13:09.589Z,1384
2017-08-04T04:14:09.610Z,1192
2017-08-04T04:15:09.571Z,1076
2017-08-04T04:16:09.623Z,996
2017-08-04T04:17:09.650Z,968
2017-08-04T04:18:09.652Z,1076
2017-08-04T04:19:09.659Z,1324
2017-08-04T04:20:09.622Z,1688
2017-08-04T04:22:09.624Z,2592
2017-08-04T04:23:09.621Z,2944
2017-08-04T04:24:09.664Z,3196
2017-08-04T04:25:09.654Z,3400
2017-08-04T04:26:09.614Z,3520
2017-08-04T04:27:09.629Z,3512
2017-08-04T04:28:09.615Z,3452
2017-08-04T04:29:09.657Z,3360
2017-08-04T04:30:09.688Z,3376
2017-08-04T04:31:09.610Z,3436
2017-08-04T04:32:09.595Z,3452
2017-08-04T04:33:09.670Z,3468
2017-08-04T04:34:09.658Z,3592
2017-08-04T04:35:09.688Z,3904
2017-08-04T04:36:09.589Z,4184
2017-08-04T04:37:09.672Z,4292
2017-08-04T04:38:09.620Z,4296
2017-08-04T04:39:09.621Z,4264
2017-08-04T04:40:09.587Z,4392
2017-08-04T04:41:09.655Z,4828
2017-08-04T04:42:09.622Z,5440
2017-08-04T04:43:09.659Z,6092
2017-08-04T04:44:09.584Z,6828
2017-08-04T04:45:09.653Z,7348
2017-08-04T04:46:09.605Z,7600
2017-08-04T04:47:09.605Z,7872
2017-08-04T04:48:09.604Z,8080
2017-08-04T04:49:09.660Z,8428
2017-08-04T04:50:09.612Z,9096
2017-08-04T04:51:09.631Z,9688
2017-08-04T04:52:09.697Z,10024
2017-08-04T04:53:09.694Z,10340
2017-08-04T04:54:09.643Z,10920
2017-08-04T04:55:09.638Z,11944
2017-08-04T04:56:09.627Z,11496
2017-08-04T04:57:09.630Z,10656
2017-08-04T04:58:09.665Z,9488
2017-08-04T04:59:09.666Z,8608
2017-08-04T05:00:09.662Z,7788
2017-08-04T05:01:09.665Z,7444
2017-08-04T05:02:09.665Z,7440
2017-08-04T05:03:09.599Z,7552
2017-08-04T05:04:09.665Z,7888
2017-08-04T05:05:09.668Z,8608
2017-08-04T05:06:09.636Z,9664
2017-08-04T05:07:09.683Z,11212
2017-08-04T05:08:09.591Z,12732
2017-08-04T05:09:09.595Z,12512
2017-08-04T05:10:09.681Z,12460
2017-08-04T05:11:09.614Z,12876
2017-08-04T05:12:09.641Z,11632
2017-08-04T05:13:09.638Z,9628
2017-08-04T05:14:09.646Z,8588
2017-08-04T05:15:09.571Z,8612
2017-08-04T05:16:09.624Z,8808
2017-08-04T05:17:09.621Z,9088
2017-08-04T05:18:09.651Z,9540
2017-08-04T05:19:09.623Z,9564
2017-08-04T05:20:09.645Z,9888
2017-08-04T05:21:09.652Z,10612
2017-08-04T05:22:09.649Z,11436
2017-08-04T05:23:09.659Z,12536
2017-08-04T05:24:09.664Z,13684
2017-08-04T05:25:09.756Z,14032
2017-08-04T05:26:09.679Z,13652
2017-08-04T05:27:09.619Z,13948
2017-08-04T05:28:09.680Z,14140
2017-08-04T05:29:09.687Z,13816
2017-08-04T05:30:09.684Z,13812
2017-08-04T05:31:09.651Z,14004
2017-08-04T05:32:09.623Z,15820
2017-08-04T05:33:09.684Z,16012
2017-08-04T05:34:09.653Z,15668
2017-08-04T05:35:09.626Z,15976
2017-08-04T05:36:09.683Z,16160
2017-08-04T05:37:09.729Z,16324
2017-08-04T05:38:09.688Z,17604
2017-08-04T05:39:09.635Z,19768
2017-08-04T05:40:09.709Z,19796
2017-08-04T05:41:09.750Z,19184
2017-08-04T05:42:09.642Z,19440
2017-08-04T05:43:09.653Z,20320
2017-08-04T05:44:09.736Z,22464
2017-08-04T05:45:09.663Z,24224
2017-08-04T05:46:09.711Z,26048
2017-08-04T05:47:09.592Z,27232
2017-08-04T05:48:09.634Z,29824
2017-08-04T05:49:09.668Z,31328
2017-08-04T05:50:09.672Z,30496
2017-08-04T05:51:09.703Z,31712
2017-08-04T05:52:09.672Z,35264
2017-08-04T05:53:09.705Z,39296
2017-08-04T05:54:09.659Z,31008
2017-08-04T05:55:09.711Z,27520
2017-08-04T05:56:09.619Z,30656
2017-08-04T05:57:09.663Z,30624
2017-08-04T05:58:09.665Z,26240
2017-08-04T05:59:09.805Z,27584
2017-08-04T06:00:09.786Z,29952
2017-08-04T06:01:09.644Z,33376
2017-08-04T06:02:09.695Z,45280
2017-08-04T06:03:09.663Z,41056
2017-08-04T06:04:09.647Z,38496
2017-08-04T06:05:09.677Z,46848
2017-08-04T06:06:09.657Z,39200
2017-08-04T06:07:09.722Z,36480
2017-08-04T06:08:09.740Z,35328
2017-08-04T06:09:09.679Z,46848
2017-08-04T06:10:09.655Z,33856
2017-08-04T06:11:09.721Z,30848
2017-08-04T06:12:09.694Z,28736
2017-08-04T06:13:09.656Z,28736
2017-08-04T06:14:09.686Z,29184
2017-08-04T06:15:09.684Z,29504
2017-08-04T06:16:09.690Z,29888
2017-08-04T06:17:09.650Z,32640
2017-08-04T06:18:09.682Z,37056
2017-08-04T06:19:09.679Z,32256
2017-08-04T06:20:09.647Z,33152
2017-08-04T06:21:09.679Z,33632
2017-08-04T06:22:09.653Z,48992
2017-08-04T06:23:09.647Z,33568
2017-08-04T06:24:09.646Z,29792
2017-08-04T06:25:09.644Z,27872
2017-08-04T06:26:09.714Z,26240
2017-08-04T06:27:09.723Z,25888
2017-08-04T06:28:09.763Z,27456
2017-08-04T06:29:09.668Z,29504
2017-08-04T06:30:09.692Z,30912
2017-08-04T06:31:09.760Z,29472
2017-08-04T06:32:09.698Z,27360
2017-08-04T06:33:09.667Z,24352
2017-08-04T06:34:09.702Z,23008
2017-08-04T06:35:09.738Z,22208
2017-08-04T06:36:09.707Z,22304
2017-08-04T06:37:09.722Z,22560
2017-08-04T06:38:09.694Z,23296
2017-08-04T06:39:09.726Z,24352
2017-08-04T06:40:09.696Z,25312
2017-08-04T06:41:09.691Z,25568
2017-08-04T06:42:09.691Z,25280
2017-08-04T06:43:09.662Z,24608
2017-08-04T06:44:09.664Z,23616
2017-08-04T06:45:09.702Z,22784
2017-08-04T06:46:09.729Z,22080
2017-08-04T06:47:09.694Z,21728
2017-08-04T06:48:09.687Z,22112
2017-08-04T06:49:09.692Z,23296
2017-08-04T06:50:09.696Z,24832
2017-08-04T06:51:09.738Z,26464
2017-08-04T06:52:09.704Z,27872
2017-08-04T06:53:09.645Z,29184
2017-08-04T06:54:09.676Z,30656
2017-08-04T06:55:09.699Z,30880
2017-08-04T06:56:09.703Z,30144
2017-08-04T06:57:09.751Z,29280
2017-08-04T06:58:09.684Z,28320
2017-08-04T06:59:09.661Z,28256
2017-08-04T07:00:09.691Z,28704
2017-08-04T07:01:09.632Z,28320
2017-08-04T07:02:09.699Z,27808
2017-08-04T07:03:09.700Z,28832
2017-08-04T07:04:09.713Z,30368
2017-08-04T07:05:09.682Z,31840
2017-08-04T07:06:09.748Z,32224
2017-08-04T07:07:09.705Z,31776
2017-08-04T07:08:09.635Z,32064
2017-08-04T07:09:09.728Z,31776
2017-08-04T07:10:09.706Z,33184
2017-08-04T07:11:09.695Z,33152
2017-08-04T07:12:09.701Z,35136
2017-08-04T07:13:09.713Z,38016
2017-08-04T07:14:09.658Z,38624
2017-08-04T07:15:09.699Z,43616
2017-08-04T07:16:09.697Z,41504
2017-08-04T07:17:09.756Z,37888
2017-08-04T07:18:09.783Z,38240
2017-08-04T07:19:09.691Z,37664
2017-08-04T07:20:09.731Z,38368
2017-08-04T07:21:09.752Z,38848
2017-08-04T07:22:09.721Z,44288
2017-08-04T07:23:09.789Z,46240
2017-08-04T07:24:09.700Z,46528
2017-08-04T07:25:09.787Z,46336
2017-08-04T07:26:09.732Z,45312
2017-08-04T07:27:09.757Z,42336
2017-08-04T07:28:09.732Z,40256
2017-08-04T07:29:09.699Z,41216
2017-08-04T07:30:09.728Z,44160
2017-08-04T07:31:09.727Z,44640
2017-08-04T07:32:09.743Z,44416
2017-08-04T07:33:09.751Z,42048
2017-08-04T07:34:09.740Z,42176
2017-08-04T07:35:09.708Z,45600
2017-08-04T07:36:09.741Z,51008
2017-08-04T07:37:09.775Z,51360
2017-08-04T07:38:09.699Z,48096
2017-08-04T07:39:09.772Z,46688
2017-08-04T07:40:09.762Z,43936
2017-08-04T07:41:09.708Z,37728
2017-08-04T07:42:09.738Z,35296
2017-08-04T07:43:09.744Z,36864
2017-08-04T07:44:09.793Z,40256
2017-08-04T07:45:09.704Z,44064
2017-08-04T07:46:09.783Z,46624
2017-08-04T07:47:09.747Z,46240
2017-08-04T07:48:09.805Z,47968
2017-08-04T07:49:09.806Z,48832
2017-08-04T07:50:09.707Z,46624
2017-08-04T07:51:09.712Z,46240
2017-08-04T07:52:09.806Z,50144
2017-08-04T07:53:09.772Z,53504
2017-08-04T07:54:09.737Z,55232
2017-08-04T07:55:09.807Z,49120
2017-08-04T07:56:09.780Z,50144
2017-08-04T07:57:09.771Z,48480
2017-08-04T07:58:09.791Z,46688
2017-08-04T07:59:09.706Z,43968
2017-08-04T08:00:09.735Z,38048
2017-08-04T08:01:09.708Z,31040
2017-08-04T08:02:09.771Z,27936
2017-08-04T08:03:09.741Z,27936
2017-08-04T08:04:09.708Z,33152
2017-08-04T08:05:09.738Z,42720
2017-08-04T08:06:09.772Z,50560
2017-08-04T08:07:09.728Z,49152
2017-08-04T08:08:09.731Z,41696
2017-08-04T08:09:09.744Z,36384
2017-08-04T08:10:09.672Z,37280
2017-08-04T08:11:09.731Z,39168
2017-08-04T08:12:09.754Z,38272
2017-08-04T08:13:09.786Z,33728
2017-08-04T08:14:09.751Z,31520
2017-08-04T08:15:09.748Z,33440
2017-08-04T08:16:09.752Z,30432
2017-08-04T08:17:09.716Z,23488
2017-08-04T08:18:09.718Z,22368
2017-08-04T08:19:09.724Z,27520
2017-08-04T08:20:09.712Z,34528
2017-08-04T08:21:09.750Z,34816
2017-08-04T08:22:09.780Z,30112
2017-08-04T08:23:09.758Z,25600
2017-08-04T08:24:09.782Z,24544
2017-08-04T08:25:09.752Z,27776
2017-08-04T08:26:09.766Z,32288
2017-08-04T08:27:09.787Z,34080
2017-08-04T08:28:09.726Z,35296
2017-08-04T08:29:09.798Z,36416
2017-08-04T08:30:09.753Z,35968
2017-08-04T08:31:09.788Z,39072
2017-08-04T08:32:09.725Z,44512
2017-08-04T08:33:09.760Z,49696
2017-08-04T08:34:09.788Z,50432
2017-08-04T08:35:09.795Z,50112
2017-08-04T08:36:09.768Z,52064
2017-08-04T08:37:09.793Z,51008
2017-08-04T08:38:09.777Z,48800
2017-08-04T08:39:09.740Z,45856
2017-08-04T08:40:09.837Z,50784
2017-08-04T08:41:09.770Z,58496
2017-08-04T08:42:09.813Z,56864
2017-08-04T08:43:09.796Z,54272
2017-08-04T08:44:09.801Z,72864
2017-08-04T08:45:09.772Z,75296
2017-08-04T08:46:09.781Z,73856
2017-08-04T08:47:09.801Z,61696
2017-08-04T08:48:09.800Z,58048
2017-08-04T08:49:09.747Z,67680
2017-08-04T08:50:09.818Z,77920
2017-08-04T08:51:09.838Z,66272
2017-08-04T08:52:09.839Z,69728
2017-08-04T08:53:09.748Z,64000
2017-08-04T08:54:09.784Z,58080
2017-08-04T08:55:09.805Z,56224
2017-08-04T08:56:09.845Z,59136
2017-08-04T08:57:09.801Z,60224
2017-08-04T08:58:09.738Z,64544
2017-08-04T08:59:09.787Z,65152
2017-08-04T09:00:09.755Z,58464
2017-08-04T09:01:09.805Z,48736
2017-08-04T09:02:09.773Z,42528
2017-08-04T09:03:09.775Z,43520
2017-08-04T09:04:09.807Z,50400
2017-08-04T09:05:09.743Z,50784
2017-08-04T09:06:09.810Z,45824
2017-08-04T09:07:09.746Z,48928
2017-08-04T09:08:09.813Z,46720
2017-08-04T09:09:09.781Z,46304
2017-08-04T09:10:09.759Z,46400
2017-08-04T09:11:09.788Z,48160
2017-08-04T09:12:09.836Z,47584
2017-08-04T09:13:09.792Z,46624
2017-08-04T09:14:09.794Z,43232
2017-08-04T09:15:09.837Z,37824
2017-08-04T09:16:09.786Z,46688
2017-08-04T09:17:09.848Z,55904
2017-08-04T09:18:09.759Z,53664
2017-08-04T09:19:09.777Z,52416
2017-08-04T09:20:09.793Z,52832
2017-08-04T09:21:09.776Z,57856
2017-08-04T09:22:09.740Z,59712
2017-08-04T09:23:09.787Z,61984
2017-08-04T09:24:09.798Z,68736
2017-08-04T09:25:09.773Z,60224
2017-08-04T09:26:09.770Z,60768
2017-08-04T09:27:09.829Z,71488
2017-08-04T09:28:09.824Z,78240
2017-08-04T09:29:09.800Z,69472
2017-08-04T09:30:09.773Z,56672
2017-08-04T09:31:09.769Z,61152
2017-08-04T09:32:09.860Z,70496
2017-08-04T09:33:09.837Z,75648
2017-08-04T09:34:09.804Z,68000
2017-08-04T09:35:09.795Z,51456
2017-08-04T09:36:09.851Z,46400
2017-08-04T09:37:09.804Z,47008
2017-08-04T09:38:09.761Z,44864
2017-08-04T09:39:09.687Z,42432
2017-08-04T09:40:09.745Z,41088
2017-08-04T09:41:09.689Z,41024
2017-08-04T09:42:09.706Z,44608
2017-08-04T09:43:09.771Z,52544
2017-08-04T09:44:09.777Z,56352
2017-08-04T09:45:09.750Z,53664
2017-08-04T09:46:09.775Z,56416
2017-08-04T09:47:09.782Z,56448
2017-08-04T09:48:09.820Z,53568
2017-08-04T09:49:09.844Z,52288
2017-08-04T09:50:09.785Z,55968
2017-08-04T09:51:09.858Z,66944
2017-08-04T09:52:09.854Z,58080
2017-08-04T09:53:09.853Z,61120
2017-08-04T09:54:09.821Z,75680
2017-08-04T09:55:09.880Z,81888
2017-08-04T09:56:09.857Z,72928
2017-08-04T09:57:09.790Z,88576
2017-08-04T09:58:09.790Z,94976
2017-08-04T09:59:09.820Z,69248
2017-08-04T10:00:09.819Z,68096
2017-08-04T10:01:09.854Z,81984
2017-08-04T10:03:09.789Z,116160
2017-08-04T10:05:09.888Z,103328
2017-08-04T10:06:09.812Z,162848
2017-08-04T10:07:09.816Z,163840
2017-08-04T10:08:09.921Z,172352
2017-08-04T10:09:09.817Z,171968
2017-08-04T10:10:09.793Z,148896
2017-08-04T10:11:09.832Z,155456
2017-08-04T10:12:09.832Z,145120
2017-08-04T10:13:09.800Z,142304
2017-08-04T10:14:09.884Z,141888
2017-08-04T10:15:09.852Z,149216
2017-08-04T10:16:09.856Z,156416
2017-08-04T10:17:09.869Z,162464
2017-08-04T10:18:09.802Z,168864
2017-08-04T10:19:09.811Z,171552
2017-08-04T10:20:09.804Z,172288
2017-08-04T10:21:09.829Z,71040
2017-08-04T10:22:09.797Z,70848
2017-08-04T10:23:09.767Z,70336
2017-08-04T10:24:09.771Z,74144
2017-08-04T10:25:09.812Z,60320
2017-08-04T10:26:09.801Z,50624
2017-08-04T10:27:09.830Z,56992
2017-08-04T10:28:09.830Z,59104
2017-08-04T10:29:09.891Z,77216
2017-08-04T10:30:09.804Z,68256
2017-08-04T10:31:09.843Z,81376
2017-08-04T10:32:09.833Z,46848
2017-08-04T10:33:09.834Z,57120
2017-08-04T10:34:09.871Z,152000
2017-08-04T10:35:09.814Z,127488
2017-08-04T10:36:09.808Z,119232
2017-08-04T10:37:09.850Z,162912
2017-08-04T10:38:09.845Z,126880
2017-08-04T10:39:09.885Z,40928
2017-08-04T10:40:09.884Z,40352
2017-08-04T10:41:09.837Z,173504
2017-08-04T10:42:09.851Z,50752
2017-08-04T10:43:09.848Z,173984
2017-08-04T10:44:09.865Z,169568
2017-08-04T10:45:09.843Z,167840
2017-08-04T10:46:09.879Z,164384
2017-08-04T10:47:09.942Z,170560
2017-08-04T10:48:09.813Z,180384
2017-08-04T10:49:09.820Z,66144
2017-08-04T10:50:09.868Z,80448
2017-08-04T10:51:09.845Z,184192
2017-08-04T10:52:09.845Z,61536
2017-08-04T10:53:09.819Z,55872
2017-08-04T10:54:09.801Z,57344
2017-08-04T10:55:09.815Z,54368
2017-08-04T10:56:09.827Z,52672
2017-08-04T10:57:09.841Z,45472
2017-08-04T10:58:09.818Z,47424
2017-08-04T10:59:09.847Z,172000
2017-08-04T11:00:09.825Z,167488
2017-08-04T11:01:09.851Z,161600
2017-08-04T11:02:09.820Z,155360
2017-08-04T11:03:09.869Z,158560
2017-08-04T11:04:09.825Z,158912
2017-08-04T11:05:09.857Z,158816
2017-08-04T11:06:09.834Z,163680
2017-08-04T11:07:09.895Z,177280
2017-08-04T11:08:09.851Z,127616
2017-08-04T11:09:09.816Z,74112
2017-08-04T11:10:09.851Z,65376
2017-08-04T11:11:09.853Z,60480
2017-08-04T11:12:09.824Z,86272
2017-08-04T11:13:09.879Z,107936
2017-08-04T11:14:09.825Z,74112
2017-08-04T11:15:09.827Z,61280
2017-08-04T11:16:09.852Z,58080
2017-08-04T11:17:09.956Z,57728
2017-08-04T11:18:09.838Z,56128
2017-08-04T11:19:09.839Z,56640
2017-08-04T11:20:09.867Z,68032
2017-08-04T11:21:09.923Z,131456
2017-08-04T11:22:09.869Z,121440
2017-08-04T11:23:09.864Z,62048
2017-08-04T11:24:09.846Z,69440
2017-08-04T11:25:09.911Z,70592
2017-08-04T11:26:09.874Z,60160
2017-08-04T11:27:09.908Z,58400
2017-08-04T11:28:09.872Z,174048
2017-08-04T11:29:09.845Z,91616
2017-08-04T11:30:09.934Z,71488
2017-08-04T11:31:09.878Z,66688
2017-08-04T11:32:09.895Z,72640
2017-08-04T11:33:09.843Z,198080
2017-08-04T11:34:09.878Z,69024
2017-08-04T11:35:09.915Z,68832
2017-08-04T11:36:09.842Z,95520
2017-08-04T11:37:09.874Z,195488
2017-08-04T11:38:09.869Z,193824
2017-08-04T11:39:09.839Z,62496
2017-08-04T11:40:09.840Z,61632
2017-08-04T11:41:09.839Z,174528
2017-08-04T11:42:09.872Z,189600
2017-08-04T11:43:09.899Z,180736
2017-08-04T11:44:09.873Z,96032
2017-08-04T11:45:09.908Z,109184
2017-08-04T11:46:09.839Z,119424
2017-08-04T11:47:09.896Z,154816
2017-08-04T11:48:09.916Z,163680
2017-08-04T11:49:09.882Z,83040
2017-08-04T11:50:09.928Z,196768
2017-08-04T11:51:09.858Z,67456
2017-08-04T11:52:09.916Z,106688
2017-08-04T11:53:10.039Z,92608
2017-08-04T11:54:09.964Z,90464
2017-08-04T11:55:09.853Z,164736
2017-08-04T11:56:09.911Z,131552
2017-08-04T11:57:09.855Z,104064
2017-08-04T11:58:09.930Z,192160
2017-08-04T11:59:09.869Z,186496
2017-08-04T12:00:09.922Z,73216
2017-08-04T12:01:09.952Z,81504
2017-08-04T12:02:09.943Z,60768
2017-08-04T12:03:09.955Z,62720
2017-08-04T12:04:09.913Z,64320
2017-08-04T12:05:09.953Z,179136
2017-08-04T12:06:09.895Z,59840
2017-08-04T12:07:09.920Z,45184
2017-08-04T12:08:09.854Z,50784
2017-08-04T12:09:09.886Z,53632
2017-08-04T12:10:09.883Z,69408
2017-08-04T12:11:09.857Z,120640
2017-08-04T12:12:09.916Z,105120
2017-08-04T12:13:09.923Z,68800
2017-08-04T12:14:09.922Z,207488
2017-08-04T12:15:09.859Z,71552
2017-08-04T12:16:09.896Z,66816
2017-08-04T12:17:09.890Z,77024
2017-08-04T12:18:09.830Z,65664
2017-08-04T12:19:09.830Z,116544
2017-08-04T12:20:09.828Z,71616
2017-08-04T12:21:09.855Z,65344
2017-08-04T12:22:09.880Z,60256
2017-08-04T12:23:09.832Z,57216
2017-08-04T12:24:09.883Z,57600
2017-08-04T12:25:09.869Z,62112
2017-08-04T12:26:09.865Z,63648
2017-08-04T12:27:09.850Z,59584
2017-08-04T12:28:09.907Z,59232
2017-08-04T12:29:09.963Z,64704
2017-08-04T12:30:09.936Z,55072
2017-08-04T12:31:09.963Z,50304
2017-08-04T12:32:09.988Z,47424
2017-08-04T12:33:09.914Z,46496
2017-08-04T12:34:09.964Z,48832
2017-08-04T12:35:09.962Z,55904
2017-08-04T12:36:09.911Z,60192
2017-08-04T12:37:09.883Z,59264
2017-08-04T12:38:09.846Z,57984
2017-08-04T12:39:09.940Z,54368
2017-08-04T12:40:09.850Z,54368
2017-08-04T12:41:09.915Z,57376
2017-08-04T12:42:09.855Z,184512
2017-08-04T12:43:09.858Z,181760
2017-08-04T12:44:09.887Z,55552
2017-08-04T12:45:09.853Z,47200
2017-08-04T12:46:09.854Z,46272
2017-08-04T12:47:09.839Z,51168
2017-08-04T12:48:09.920Z,56672
2017-08-04T12:49:09.957Z,55680
2017-08-04T12:50:09.962Z,51040
2017-08-04T12:51:09.889Z,49856
2017-08-04T12:52:09.951Z,159328
2017-08-04T12:53:09.954Z,85280
2017-08-04T12:54:09.922Z,55072
2017-08-04T12:55:09.978Z,61536
2017-08-04T12:56:09.978Z,62624
2017-08-04T12:57:09.919Z,64320
2017-08-04T12:58:09.933Z,65696
2017-08-04T12:59:09.915Z,57344
2017-08-04T13:00:09.916Z,51904
2017-08-04T13:01:09.912Z,45664
2017-08-04T13:02:09.894Z,43456
2017-08-04T13:03:09.896Z,44576
2017-08-04T13:04:09.967Z,43840
2017-08-04T13:05:09.898Z,43296
2017-08-04T13:06:09.922Z,44960
2017-08-04T13:07:09.988Z,48672
2017-08-04T13:08:09.953Z,51392
2017-08-04T13:09:09.964Z,53216
2017-08-04T13:10:09.963Z,59392
2017-08-04T13:11:09.976Z,69184
2017-08-04T13:12:09.971Z,176768
2017-08-04T13:13:09.900Z,73504
2017-08-04T13:14:09.903Z,88160
2017-08-04T13:15:09.902Z,66368
2017-08-04T13:16:10.000Z,66304
2017-08-04T13:17:09.912Z,59392
2017-08-04T13:18:09.896Z,53600
2017-08-04T13:19:09.899Z,49280
2017-08-04T13:20:09.923Z,46304
2017-08-04T13:21:09.896Z,45760
2017-08-04T13:22:09.928Z,44928
2017-08-04T13:23:09.960Z,42240
2017-08-04T13:24:09.971Z,40992
2017-08-04T13:25:09.955Z,44224